Terminal Aerodrome Forecast
Issued by NWS

Home | Current Version | Previous Version | Text Only | Print | Product List | Glossary On
Versions: 1 2 3 4 5 6 7 8 9 10 11 12 13 14 15 16 17 18
000
FTUS42 KILM 292320
TAFCRE
TAF
KCRE 292320Z 3000/3024 15004KT 6SM HZ SCT250
     FM300600 18004KT 4SM BR SCT250
     FM300900 12003KT 2SM BR BKN004
     FM301200 08003KT 1SM BR BKN001
     FM301400 12007KT P6SM SCT020 SCT250=

USA.gov is the U.S. government's official web portal to all federal, state and local government web resources and services.